createdAt,value
2023-05-10T00:00:14.819Z,3.17
2023-05-10T00:02:42.324Z,1.10
2023-05-10T00:05:10.459Z,0.70
2023-05-10T00:07:38.318Z,2.80
2023-05-10T00:10:06.148Z,1.13
2023-05-10T00:12:33.387Z,0.70
2023-05-10T00:15:00.846Z,0.93
2023-05-10T00:17:28.321Z,2.03
2023-05-10T00:19:55.801Z,3.00
2023-05-10T00:22:23.671Z,3.50
2023-05-10T00:24:51.028Z,2.80
2023-05-10T00:27:18.255Z,2.40
2023-05-10T00:29:45.513Z,1.77
2023-05-10T00:32:12.921Z,1.07
2023-05-10T00:34:40.595Z,0.70
2023-05-10T00:37:08.394Z,0.60
2023-05-10T00:39:35.800Z,0.63
2023-05-10T00:42:03.089Z,0.60
2023-05-10T00:44:32.037Z,0.70
2023-05-10T00:46:59.726Z,1.00
2023-05-10T00:49:27.438Z,2.20
2023-05-10T00:51:54.810Z,2.77
2023-05-10T00:54:22.614Z,2.50
2023-05-10T00:56:50.609Z,2.97
2023-05-10T00:59:19.064Z,2.70
2023-05-10T01:01:47.497Z,2.20
2023-05-10T01:04:15.711Z,2.20
2023-05-10T01:06:43.267Z,1.30
2023-05-10T01:09:11.211Z,0.77
2023-05-10T01:11:39.804Z,0.60
2023-05-10T01:14:07.989Z,0.70
2023-05-10T01:16:39.280Z,0.60
2023-05-10T01:19:20.172Z,0.60
2023-05-10T01:22:21.179Z,3.17
2023-05-10T01:25:21.376Z,2.73
2023-05-10T01:28:10.617Z,2.60
2023-05-10T01:31:08.698Z,0.70
2023-05-10T01:33:52.338Z,0.70
2023-05-10T01:36:33.602Z,3.17
2023-05-10T01:39:10.986Z,0.60
2023-05-10T01:41:58.974Z,0.70
2023-05-10T01:44:54.258Z,2.87
2023-05-10T01:47:45.480Z,2.80
2023-05-10T01:50:19.712Z,1.10
2023-05-10T01:52:52.710Z,2.57
2023-05-10T01:55:21.641Z,3.27
2023-05-10T01:57:54.463Z,3.17
2023-05-10T02:00:22.005Z,2.60
2023-05-10T02:02:50.411Z,2.67
2023-05-10T02:05:19.021Z,2.87
2023-05-10T02:07:46.782Z,1.77
2023-05-10T02:10:15.440Z,2.47
2023-05-10T02:12:45.166Z,1.27
2023-05-10T02:15:13.940Z,1.00
2023-05-10T02:17:42.017Z,1.00
2023-05-10T02:20:10.639Z,0.90
2023-05-10T02:22:39.576Z,0.70
2023-05-10T02:25:09.005Z,0.60
2023-05-10T02:27:36.972Z,0.60
2023-05-10T02:30:08.201Z,0.80
2023-05-10T02:32:36.912Z,0.60
2023-05-10T02:35:05.209Z,0.67
2023-05-10T02:37:33.551Z,0.70
2023-05-10T02:40:01.520Z,0.70
2023-05-10T02:42:29.337Z,1.93
2023-05-10T02:45:01.991Z,2.40
2023-05-10T02:47:32.805Z,1.33
2023-05-10T02:50:01.078Z,0.90
2023-05-10T02:52:32.452Z,1.63
2023-05-10T02:55:02.785Z,1.93
2023-05-10T02:57:33.713Z,1.27
2023-05-10T03:00:02.318Z,0.70
2023-05-10T03:02:32.122Z,1.03
2023-05-10T03:04:59.677Z,1.33
2023-05-10T03:07:27.127Z,2.40
2023-05-10T03:09:54.476Z,2.30
2023-05-10T03:12:43.906Z,2.53
2023-05-10T03:15:30.432Z,1.20
2023-05-10T03:18:03.883Z,1.97
2023-05-10T03:20:37.711Z,0.70
2023-05-10T03:23:45.835Z,0.80
2023-05-10T03:26:26.977Z,1.13
2023-05-10T03:28:55.157Z,2.40
2023-05-10T03:31:23.063Z,2.67
2023-05-10T03:33:53.804Z,3.27
2023-05-10T03:36:21.978Z,2.30
2023-05-10T03:38:49.326Z,3.07
2023-05-10T03:41:16.831Z,1.90
2023-05-10T03:43:44.100Z,2.10
2023-05-10T03:46:11.928Z,0.97
2023-05-10T03:48:40.160Z,0.70
2023-05-10T03:51:07.769Z,0.60
2023-05-10T03:53:35.119Z,0.70
2023-05-10T03:56:02.661Z,0.60
2023-05-10T03:58:30.106Z,1.00
2023-05-10T04:00:57.497Z,2.03
2023-05-10T04:03:24.820Z,2.63
2023-05-10T04:06:01.233Z,2.63
2023-05-10T04:08:28.571Z,1.83
2023-05-10T04:10:55.827Z,2.80
2023-05-10T04:13:23.917Z,2.70
2023-05-10T04:15:51.193Z,2.50
2023-05-10T04:18:18.455Z,2.70
2023-05-10T04:20:45.617Z,1.67
2023-05-10T04:23:15.579Z,1.10
2023-05-10T04:25:43.400Z,0.90
2023-05-10T04:28:10.705Z,0.77
2023-05-10T04:30:38.441Z,0.80
2023-05-10T04:33:05.816Z,0.70
2023-05-10T04:35:33.297Z,0.73
2023-05-10T04:38:00.754Z,0.93
2023-05-10T04:40:28.370Z,2.20
2023-05-10T04:42:55.988Z,2.50
2023-05-10T04:45:23.548Z,2.53
2023-05-10T04:47:50.826Z,3.23
2023-05-10T04:50:18.959Z,2.57
2023-05-10T04:52:46.395Z,2.03
2023-05-10T04:55:13.627Z,1.30
2023-05-10T04:57:40.977Z,0.73
2023-05-10T05:00:09.718Z,2.33
2023-05-10T05:02:37.432Z,0.70
2023-05-10T05:05:04.902Z,0.70
2023-05-10T05:07:32.501Z,0.70
2023-05-10T05:10:00.012Z,1.10
2023-05-10T05:12:27.622Z,2.80
2023-05-10T05:14:55.094Z,2.27
2023-05-10T05:17:22.711Z,2.70
2023-05-10T05:19:50.258Z,2.50
2023-05-10T05:22:19.471Z,2.93
2023-05-10T05:24:47.519Z,2.20
2023-05-10T05:27:14.707Z,2.50
2023-05-10T05:29:42.533Z,1.10
2023-05-10T05:32:10.194Z,0.70
2023-05-10T05:34:37.900Z,0.90
2023-05-10T05:37:05.102Z,1.93
2023-05-10T05:39:32.368Z,0.90
2023-05-10T05:41:59.718Z,1.30
2023-05-10T05:44:27.973Z,2.10
2023-05-10T05:46:55.310Z,2.27
2023-05-10T05:49:22.635Z,2.33
2023-05-10T05:51:51.454Z,2.80
2023-05-10T05:54:18.898Z,2.40
2023-05-10T05:56:46.218Z,2.10
2023-05-10T05:59:13.567Z,1.07
2023-05-10T06:01:40.961Z,0.63
2023-05-10T06:04:08.965Z,0.70
2023-05-10T06:06:36.508Z,0.70
2023-05-10T06:09:03.858Z,0.60
2023-05-10T06:11:33.903Z,1.57
2023-05-10T06:14:01.743Z,0.70
2023-05-10T06:16:29.296Z,1.50
2023-05-10T06:18:56.762Z,2.50
2023-05-10T06:21:24.105Z,2.50
2023-05-10T06:23:51.709Z,2.43
2023-05-10T06:26:19.196Z,2.30
2023-05-10T06:28:46.338Z,1.67
2023-05-10T06:31:13.685Z,1.23
2023-05-10T06:33:41.450Z,0.63
2023-05-10T06:36:09.151Z,0.60
2023-05-10T06:38:36.656Z,0.80
2023-05-10T06:41:04.655Z,0.70
2023-05-10T06:43:31.918Z,0.90
2023-05-10T06:45:59.554Z,1.37
2023-05-10T06:48:26.811Z,2.30
2023-05-10T06:50:54.341Z,2.27
2023-05-10T06:53:21.718Z,2.23
2023-05-10T06:55:50.906Z,2.30
2023-05-10T06:58:18.440Z,3.10
2023-05-10T07:00:46.612Z,2.07
2023-05-10T07:03:14.352Z,1.27
2023-05-10T07:05:41.708Z,1.23
2023-05-10T07:08:10.160Z,0.70
2023-05-10T07:10:38.075Z,0.80
2023-05-10T07:13:05.301Z,0.70
2023-05-10T07:15:33.119Z,1.07
2023-05-10T07:18:00.627Z,1.07
2023-05-10T07:20:28.227Z,2.07
2023-05-10T07:22:55.621Z,2.43
2023-05-10T07:25:22.887Z,2.30
2023-05-10T07:27:50.244Z,2.90
2023-05-10T07:30:17.597Z,2.53
2023-05-10T07:32:44.902Z,2.47
2023-05-10T07:35:12.403Z,1.13
2023-05-10T07:37:39.860Z,0.87
2023-05-10T07:40:08.183Z,0.90
2023-05-10T07:42:36.148Z,0.80
2023-05-10T07:45:03.446Z,0.70
2023-05-10T07:47:30.770Z,1.33
2023-05-10T07:49:58.248Z,1.97
2023-05-10T07:52:26.167Z,2.40
2023-05-10T07:54:53.607Z,2.00
2023-05-10T07:57:21.095Z,2.70
2023-05-10T07:59:48.716Z,2.50
2023-05-10T08:02:16.467Z,1.80
2023-05-10T08:04:44.051Z,1.17
2023-05-10T08:07:12.097Z,0.90
2023-05-10T08:09:40.079Z,0.90
2023-05-10T08:12:07.851Z,0.80
2023-05-10T08:14:35.368Z,1.10
2023-05-10T08:17:02.937Z,0.70
2023-05-10T08:19:30.748Z,0.93
2023-05-10T08:21:58.549Z,2.33
2023-05-10T08:24:26.411Z,2.40
2023-05-10T08:26:53.983Z,2.60
2023-05-10T08:29:21.278Z,2.10
2023-05-10T08:31:48.636Z,2.50
2023-05-10T08:34:16.274Z,1.90
2023-05-10T08:36:43.920Z,1.13
2023-05-10T08:39:23.012Z,0.70
2023-05-10T08:41:55.838Z,2.10
2023-05-10T08:44:23.529Z,2.20
2023-05-10T08:46:55.503Z,2.60
2023-05-10T08:49:23.405Z,2.23
2023-05-10T08:51:53.885Z,2.50
2023-05-10T08:54:21.387Z,3.03
2023-05-10T08:56:49.825Z,2.10
2023-05-10T08:59:17.659Z,1.93
2023-05-10T09:01:47.016Z,2.37
2023-05-10T09:04:14.590Z,1.40
2023-05-10T09:06:42.265Z,1.00
2023-05-10T09:09:10.434Z,1.13
2023-05-10T09:11:37.875Z,0.90
2023-05-10T09:14:05.278Z,0.70
2023-05-10T09:16:32.580Z,0.70
2023-05-10T09:18:59.958Z,1.13
2023-05-10T09:21:27.750Z,2.00
2023-05-10T09:23:55.695Z,2.50
2023-05-10T09:26:26.082Z,2.30
2023-05-10T09:28:58.517Z,2.10
2023-05-10T09:31:27.026Z,2.17
2023-05-10T09:33:54.883Z,2.03
2023-05-10T09:36:22.244Z,2.23
2023-05-10T09:38:53.880Z,1.97
2023-05-10T09:41:25.036Z,2.70
2023-05-10T09:43:57.101Z,2.27
2023-05-10T09:46:24.846Z,2.30
2023-05-10T09:48:52.146Z,2.30
2023-05-10T09:51:28.312Z,2.70
2023-05-10T09:54:16.302Z,2.30
2023-05-10T09:56:43.940Z,1.13
2023-05-10T09:59:13.407Z,0.80
2023-05-10T10:01:41.982Z,0.80
2023-05-10T10:04:11.516Z,0.70
2023-05-10T10:06:42.169Z,0.70
2023-05-10T10:09:10.293Z,0.60
2023-05-10T10:11:39.161Z,0.70
2023-05-10T10:14:07.037Z,0.60
2023-05-10T10:16:34.403Z,0.83
2023-05-10T10:19:02.523Z,0.60
2023-05-10T10:21:29.988Z,1.27
2023-05-10T10:23:57.988Z,2.00
2023-05-10T10:26:26.330Z,2.20
2023-05-10T10:29:17.564Z,2.30
2023-05-10T10:32:08.118Z,2.10
2023-05-10T10:34:35.853Z,0.70
2023-05-10T10:37:08.544Z,0.60
2023-05-10T10:39:38.224Z,0.60
2023-05-10T10:42:06.646Z,0.70
2023-05-10T10:44:35.593Z,0.70
2023-05-10T10:47:24.546Z,0.70
2023-05-10T10:49:55.894Z,2.63
2023-05-10T10:52:34.674Z,2.20
2023-05-10T10:55:08.490Z,0.70
2023-05-10T10:57:48.623Z,0.83
2023-05-10T11:00:36.095Z,1.80
2023-05-10T11:03:10.582Z,0.70
2023-05-10T11:05:43.017Z,0.60
2023-05-10T11:08:28.268Z,0.80
2023-05-10T11:11:05.244Z,2.30
2023-05-10T11:13:43.520Z,0.70
2023-05-10T11:16:25.174Z,0.70
2023-05-10T11:19:09.233Z,2.40
2023-05-10T11:21:50.830Z,0.70
2023-05-10T11:24:24.104Z,2.63
2023-05-10T11:26:52.944Z,3.13
2023-05-10T11:29:20.434Z,2.30
2023-05-10T11:31:49.187Z,2.33
2023-05-10T11:34:35.728Z,1.93
2023-05-10T11:37:03.366Z,0.63
2023-05-10T11:39:32.152Z,1.07
2023-05-10T11:42:00.261Z,1.23
2023-05-10T11:44:34.466Z,2.20
2023-05-10T11:47:21.963Z,0.67
2023-05-10T11:49:49.821Z,2.10
2023-05-10T11:52:17.009Z,1.73
2023-05-10T11:54:52.808Z,1.63
2023-05-10T11:57:21.663Z,2.43
2023-05-10T11:59:49.290Z,2.37
2023-05-10T12:02:16.526Z,1.77
2023-05-10T12:04:44.195Z,1.00
2023-05-10T12:07:11.751Z,0.80
2023-05-10T12:09:44.355Z,0.70
2023-05-10T12:12:17.379Z,0.87
2023-05-10T12:14:44.824Z,1.77
2023-05-10T12:17:14.765Z,0.87
2023-05-10T12:19:43.086Z,1.10
2023-05-10T12:22:10.594Z,0.70
2023-05-10T12:24:41.887Z,0.70
2023-05-10T12:27:13.917Z,0.60
2023-05-10T12:29:45.715Z,0.57
2023-05-10T12:32:13.459Z,0.83
2023-05-10T12:34:41.751Z,0.60
2023-05-10T12:37:09.357Z,0.60
2023-05-10T12:39:45.198Z,0.70
2023-05-10T12:42:12.938Z,0.80
2023-05-10T12:44:41.223Z,0.73
2023-05-10T12:47:09.168Z,2.60
2023-05-10T12:49:36.785Z,0.60
2023-05-10T12:52:04.265Z,0.60
2023-05-10T12:54:31.900Z,0.60
2023-05-10T12:56:59.150Z,1.20
2023-05-10T12:59:26.374Z,2.20
2023-05-10T13:01:53.716Z,1.70
2023-05-10T13:04:21.157Z,2.50
2023-05-10T13:06:48.481Z,2.43
2023-05-10T13:09:16.370Z,1.57
2023-05-10T13:11:43.972Z,0.80
2023-05-10T13:14:11.366Z,0.60
2023-05-10T13:16:39.318Z,0.50
2023-05-10T13:19:07.405Z,0.70
2023-05-10T13:21:34.826Z,0.60
2023-05-10T13:24:02.599Z,0.70
2023-05-10T13:26:30.272Z,1.00
2023-05-10T13:28:57.807Z,1.90
2023-05-10T13:31:25.268Z,1.93
2023-05-10T13:33:52.668Z,1.97
2023-05-10T13:36:20.192Z,1.97
2023-05-10T13:38:47.626Z,1.43
2023-05-10T13:41:15.608Z,1.37
2023-05-10T13:43:43.167Z,0.80
2023-05-10T13:46:10.626Z,0.60
2023-05-10T13:48:39.223Z,0.60
2023-05-10T13:51:07.130Z,0.60
2023-05-10T13:53:34.961Z,0.67
2023-05-10T13:56:04.005Z,0.60
2023-05-10T13:58:31.515Z,0.70
2023-05-10T14:00:59.121Z,1.77
2023-05-10T14:03:27.098Z,1.90
2023-05-10T14:05:54.475Z,2.10
2023-05-10T14:08:22.872Z,2.20
2023-05-10T14:10:50.285Z,1.87
2023-05-10T14:13:17.511Z,1.90
2023-05-10T14:15:45.209Z,4.17
2023-05-10T14:18:12.589Z,0.90
2023-05-10T14:20:40.163Z,0.50
2023-05-10T14:23:09.805Z,0.60
2023-05-10T14:25:39.574Z,0.60
2023-05-10T14:28:07.359Z,0.60
2023-05-10T14:30:37.987Z,0.60
2023-05-10T14:33:05.668Z,0.60
2023-05-10T14:35:33.478Z,0.60
2023-05-10T14:38:01.304Z,0.90
2023-05-10T14:40:28.882Z,1.57
2023-05-10T14:42:56.167Z,2.00
2023-05-10T14:45:24.280Z,1.83
2023-05-10T14:47:51.677Z,2.07
2023-05-10T14:50:35.260Z,2.07
2023-05-10T14:53:04.406Z,0.60
2023-05-10T14:55:31.688Z,0.70
2023-05-10T14:57:59.852Z,1.57
2023-05-10T15:00:28.736Z,1.73
2023-05-10T15:02:56.630Z,2.00
2023-05-10T15:05:24.462Z,1.70
2023-05-10T15:07:52.421Z,2.03
2023-05-10T15:10:19.851Z,1.90
2023-05-10T15:12:47.538Z,1.10
2023-05-10T15:15:15.177Z,1.20
2023-05-10T15:17:42.932Z,0.77
2023-05-10T15:20:10.773Z,0.50
2023-05-10T15:22:39.768Z,0.60
2023-05-10T15:25:08.132Z,0.70
2023-05-10T15:27:36.375Z,0.60
2023-05-10T15:30:03.969Z,0.50
2023-05-10T15:32:31.454Z,0.83
2023-05-10T15:34:59.251Z,1.63
2023-05-10T15:37:26.742Z,1.77
2023-05-10T15:39:55.804Z,1.97
2023-05-10T15:42:24.680Z,1.90
2023-05-10T15:44:52.145Z,2.23
2023-05-10T15:47:19.408Z,1.90
2023-05-10T15:49:46.959Z,1.73
2023-05-10T15:52:14.256Z,0.80
2023-05-10T15:54:42.155Z,0.67
2023-05-10T15:57:09.799Z,0.60
2023-05-10T15:59:38.174Z,0.70
2023-05-10T16:02:05.821Z,0.60
2023-05-10T16:04:33.669Z,0.50
2023-05-10T16:07:01.207Z,0.93
2023-05-10T16:09:28.805Z,1.43
2023-05-10T16:11:56.945Z,2.10
2023-05-10T16:14:24.984Z,1.87
2023-05-10T16:16:52.576Z,2.37
2023-05-10T16:19:20.494Z,1.93
2023-05-10T16:21:48.201Z,1.73
2023-05-10T16:24:16.064Z,1.67
2023-05-10T16:26:43.734Z,0.80
2023-05-10T16:29:11.322Z,0.60
2023-05-10T16:31:39.733Z,0.50
2023-05-10T16:34:08.571Z,0.53
2023-05-10T16:36:35.842Z,0.60
2023-05-10T16:39:03.108Z,0.70
2023-05-10T16:41:34.200Z,0.80
2023-05-10T16:44:01.842Z,0.83
2023-05-10T16:46:32.145Z,3.53
2023-05-10T16:49:00.442Z,1.27
2023-05-10T16:51:28.011Z,1.73
2023-05-10T16:53:55.348Z,2.00
2023-05-10T16:56:23.588Z,2.07
2023-05-10T16:58:50.909Z,2.10
2023-05-10T17:01:18.129Z,2.00
2023-05-10T17:03:45.645Z,1.80
2023-05-10T17:06:14.326Z,0.87
2023-05-10T17:08:41.652Z,0.60
2023-05-10T17:11:09.475Z,0.70
2023-05-10T17:13:39.179Z,0.60
2023-05-10T17:16:07.280Z,0.60
2023-05-10T17:18:34.798Z,0.60
2023-05-10T17:21:02.164Z,0.80
2023-05-10T17:23:30.610Z,1.23
2023-05-10T17:25:59.594Z,1.87
2023-05-10T17:28:28.830Z,1.37
2023-05-10T17:31:00.058Z,2.00
2023-05-10T17:33:27.316Z,2.10
2023-05-10T17:35:56.154Z,2.37
2023-05-10T17:38:23.677Z,1.93
2023-05-10T17:40:51.847Z,2.10
2023-05-10T17:43:19.136Z,2.27
2023-05-10T17:45:49.550Z,2.03
2023-05-10T17:48:17.504Z,1.33
2023-05-10T17:50:44.775Z,1.07
2023-05-10T17:53:12.130Z,0.67
2023-05-10T17:55:42.610Z,0.67
2023-05-10T17:58:12.153Z,0.53
2023-05-10T18:00:40.098Z,0.60
2023-05-10T18:03:07.513Z,0.70
2023-05-10T18:05:39.765Z,0.60
2023-05-10T18:08:08.194Z,3.17
2023-05-10T18:10:37.367Z,0.60
2023-05-10T18:13:07.369Z,0.80
2023-05-10T18:15:35.928Z,0.60
2023-05-10T18:18:04.528Z,0.70
2023-05-10T18:20:32.275Z,0.70
2023-05-10T18:22:59.794Z,1.53
2023-05-10T18:25:27.072Z,2.00
2023-05-10T18:27:54.706Z,2.37
2023-05-10T18:30:22.912Z,2.83
2023-05-10T18:32:50.445Z,2.10
2023-05-10T18:35:18.496Z,1.80
2023-05-10T18:37:46.252Z,1.90
2023-05-10T18:40:14.926Z,0.80
2023-05-10T18:42:42.358Z,0.80
2023-05-10T18:45:10.489Z,0.80
2023-05-10T18:47:38.431Z,0.60
2023-05-10T18:50:06.628Z,0.73
2023-05-10T18:52:34.098Z,0.80
2023-05-10T18:55:01.488Z,1.00
2023-05-10T18:57:28.760Z,1.60
2023-05-10T18:59:56.283Z,2.23
2023-05-10T19:02:25.554Z,2.10
2023-05-10T19:04:53.236Z,2.07
2023-05-10T19:07:20.891Z,2.13
2023-05-10T19:09:48.397Z,1.90
2023-05-10T19:12:16.017Z,1.57
2023-05-10T19:14:43.774Z,0.80
2023-05-10T19:17:14.445Z,0.70
2023-05-10T19:19:43.985Z,0.50
2023-05-10T19:22:12.625Z,0.87
2023-05-10T19:24:40.468Z,0.70
2023-05-10T19:27:09.597Z,0.97
2023-05-10T19:29:37.182Z,0.60
2023-05-10T19:32:05.252Z,0.60
2023-05-10T19:34:33.375Z,0.60
2023-05-10T19:37:01.630Z,1.27
2023-05-10T19:39:31.092Z,1.97
2023-05-10T19:41:59.905Z,2.03
2023-05-10T19:44:27.235Z,2.20
2023-05-10T19:46:54.851Z,2.30
2023-05-10T19:49:22.608Z,3.20
2023-05-10T19:51:50.264Z,2.00
2023-05-10T19:54:17.944Z,1.50
2023-05-10T19:56:45.251Z,1.77
2023-05-10T19:59:12.553Z,0.87
2023-05-10T20:01:40.211Z,0.60
2023-05-10T20:04:08.224Z,0.70
2023-05-10T20:06:36.150Z,0.60
2023-05-10T20:09:03.742Z,0.90
2023-05-10T20:11:31.365Z,1.10
2023-05-10T20:13:58.591Z,1.90
2023-05-10T20:16:26.971Z,2.03
2023-05-10T20:18:54.784Z,2.43
2023-05-10T20:21:22.708Z,2.70
2023-05-10T20:23:50.003Z,2.40
2023-05-10T20:26:17.660Z,1.27
2023-05-10T20:28:44.924Z,1.17
2023-05-10T20:31:12.547Z,0.80
2023-05-10T20:33:40.311Z,0.60
2023-05-10T20:36:10.052Z,0.93
2023-05-10T20:38:37.559Z,0.60
2023-05-10T20:41:05.228Z,1.20
2023-05-10T20:43:32.913Z,0.60
2023-05-10T20:46:05.789Z,1.43
2023-05-10T20:48:33.351Z,0.60
2023-05-10T20:51:04.085Z,1.23
2023-05-10T20:53:31.645Z,1.10
2023-05-10T20:55:59.009Z,2.17
2023-05-10T20:58:26.695Z,2.50
2023-05-10T21:00:54.230Z,2.00
2023-05-10T21:03:21.551Z,2.33
2023-05-10T21:05:49.257Z,2.77
2023-05-10T21:08:16.825Z,1.90
2023-05-10T21:10:44.523Z,0.87
2023-05-10T21:13:12.081Z,0.80
2023-05-10T21:15:39.779Z,0.60
2023-05-10T21:18:07.153Z,0.80
2023-05-10T21:20:34.572Z,0.60
2023-05-10T21:23:01.692Z,0.90
2023-05-10T21:25:28.969Z,2.13
2023-05-10T21:27:56.738Z,2.60
2023-05-10T21:30:24.509Z,2.70
2023-05-10T21:32:51.780Z,3.23
2023-05-10T21:35:19.272Z,3.27
2023-05-10T21:37:46.739Z,1.87
2023-05-10T21:40:14.330Z,1.43
2023-05-10T21:42:42.301Z,0.70
2023-05-10T21:45:10.272Z,1.07
2023-05-10T21:47:38.000Z,0.60
2023-05-10T21:50:06.269Z,0.67
2023-05-10T21:52:33.846Z,0.70
2023-05-10T21:55:01.332Z,1.13
2023-05-10T21:57:28.650Z,2.20
2023-05-10T21:59:55.915Z,2.23
2023-05-10T22:02:23.669Z,2.10
2023-05-10T22:04:51.392Z,2.90
2023-05-10T22:07:18.900Z,2.33
2023-05-10T22:09:46.277Z,2.67
2023-05-10T22:12:13.870Z,1.43
2023-05-10T22:14:41.425Z,0.67
2023-05-10T22:17:09.375Z,1.23
2023-05-10T22:19:37.097Z,0.60
2023-05-10T22:22:04.504Z,0.60
2023-05-10T22:24:31.926Z,1.00
2023-05-10T22:26:59.587Z,2.30
2023-05-10T22:29:26.860Z,2.50
2023-05-10T22:31:54.019Z,2.40
2023-05-10T22:34:21.218Z,2.63
2023-05-10T22:36:49.934Z,2.03
2023-05-10T22:39:17.558Z,2.10
2023-05-10T22:41:44.732Z,1.10
2023-05-10T22:44:12.277Z,0.90
2023-05-10T22:46:39.986Z,0.80
2023-05-10T22:49:07.776Z,1.20
2023-05-10T22:51:35.579Z,0.60
2023-05-10T22:54:03.183Z,0.60
2023-05-10T22:56:31.463Z,1.53
2023-05-10T22:58:58.614Z,2.50
2023-05-10T23:01:25.944Z,2.40
2023-05-10T23:03:53.143Z,2.33
2023-05-10T23:06:20.616Z,2.40
2023-05-10T23:08:48.692Z,1.97
2023-05-10T23:11:16.608Z,2.50
2023-05-10T23:13:44.142Z,0.90
2023-05-10T23:16:11.810Z,1.17
2023-05-10T23:18:40.157Z,0.63
2023-05-10T23:21:07.744Z,0.60
2023-05-10T23:23:35.713Z,0.67
2023-05-10T23:26:04.567Z,0.60
2023-05-10T23:28:32.609Z,0.93
2023-05-10T23:30:59.826Z,1.70
2023-05-10T23:33:27.308Z,2.77
2023-05-10T23:35:55.433Z,2.60
2023-05-10T23:38:22.714Z,3.03
2023-05-10T23:40:50.998Z,2.23
2023-05-10T23:43:19.921Z,2.07
2023-05-10T23:45:57.626Z,2.03
2023-05-10T23:48:24.948Z,2.50
2023-05-10T23:50:52.145Z,3.10
2023-05-10T23:53:19.563Z,3.27
2023-05-10T23:55:47.057Z,2.20
2023-05-10T23:58:14.454Z,1.40
